KMSV/MSV METAR and TAF weather

Enter ICAO airport designator
Station Type Date Time Source
KMSV METAR 2022/12/04 04:56 UTC NOAA

KMSV 040456Z AUTO 31011G19KT 10SM OVC045 02/M06 A3012 RMK AO2 SLP209 T00171056 401000011 FZRANO


Station Type Date Time Source
KMSV Decoded METAR 2022/12/04 04:56 UTC NOAA

Monticello, Sullivan County International Airport, NY, United States (KMSV) 41-42N 074-48W
Dec 03, 2022 - 11:56 PM EST / 2022.12.04 0456 UTC
Wind: from the NW (310 degrees) at 13 MPH (11 KT) gusting to 22 MPH (19 KT):0
Visibility: 10 mile(s):0
Sky conditions: overcast
Temperature: 35.1 F (1.7 C)
Dew Point: 21.9 F (-5.6 C)
Relative Humidity: 58%
Pressure (altimeter): 30.12 in. Hg (1019 hPa)
ob: KMSV 040456Z AUTO 31011G19KT 10SM OVC045 02/M06 A3012 RMK AO2 SLP209 T00171056 401000011 FZRANO
cycle: 5

Station Type Date Time Source
KMSV TAF UTC NOAA

Error!

Example: see airport list